createdAt,value
2023-02-24T00:02:33.775Z,25.70
2023-02-24T00:06:38.131Z,25.93
2023-02-24T00:10:39.331Z,23.60
2023-02-24T00:14:43.617Z,23.33
2023-02-24T00:18:45.533Z,26.20
2023-02-24T00:22:46.745Z,25.50
2023-02-24T00:26:55.776Z,26.20
2023-02-24T00:31:06.070Z,25.80
2023-02-24T00:35:08.514Z,24.67
2023-02-24T00:39:10.700Z,21.93
2023-02-24T00:43:12.145Z,20.77
2023-02-24T00:47:17.748Z,20.97
2023-02-24T00:51:24.042Z,20.20
2023-02-24T00:55:26.970Z,19.97
2023-02-24T00:59:28.435Z,20.60
2023-02-24T01:03:31.196Z,20.80
2023-02-24T01:07:33.619Z,19.57
2023-02-24T01:11:54.304Z,17.93
2023-02-24T01:16:01.003Z,18.57
2023-02-24T01:20:04.902Z,19.53
2023-02-24T01:24:06.017Z,18.73
2023-02-24T01:28:08.977Z,20.03
2023-02-24T01:32:16.586Z,21.00
2023-02-24T01:36:21.015Z,20.67
2023-02-24T01:40:24.157Z,21.40
2023-02-24T01:44:32.500Z,20.20
2023-02-24T01:48:33.672Z,19.53
2023-02-24T01:52:36.820Z,20.50
2023-02-24T01:56:40.477Z,20.43
2023-02-24T02:00:43.541Z,20.20
2023-02-24T02:04:50.736Z,19.37
2023-02-24T02:08:52.459Z,18.33
2023-02-24T02:12:55.008Z,18.20
2023-02-24T02:17:08.848Z,18.10
2023-02-24T02:21:30.414Z,19.10
2023-02-24T02:25:38.372Z,20.47
2023-02-24T02:29:49.221Z,19.90
2023-02-24T02:34:04.737Z,18.73
2023-02-24T02:38:10.096Z,18.23
2023-02-24T02:42:23.557Z,20.10
2023-02-24T02:46:34.577Z,20.37
2023-02-24T02:50:42.568Z,19.47
2023-02-24T02:54:49.946Z,19.00
2023-02-24T02:58:54.931Z,19.10
2023-02-24T03:03:01.789Z,18.33
2023-02-24T03:07:04.631Z,17.47
2023-02-24T03:11:09.586Z,19.77
2023-02-24T03:15:13.340Z,19.37
2023-02-24T03:19:19.801Z,20.53
2023-02-24T03:23:25.144Z,19.00
2023-02-24T03:27:39.235Z,18.27
2023-02-24T03:31:50.320Z,17.60
2023-02-24T03:35:51.881Z,17.27
2023-02-24T03:39:56.718Z,17.23
2023-02-24T03:44:00.276Z,17.47
2023-02-24T03:48:02.843Z,18.53
2023-02-24T03:52:20.750Z,19.90
2023-02-24T03:56:25.795Z,17.33
2023-02-24T04:00:37.726Z,18.80
2023-02-24T04:04:45.643Z,17.70
2023-02-24T04:08:58.788Z,19.67
2023-02-24T04:13:03.729Z,20.53
2023-02-24T04:17:29.414Z,18.00
2023-02-24T04:21:32.281Z,16.67
2023-02-24T04:25:34.232Z,20.37
2023-02-24T04:29:44.611Z,18.43
2023-02-24T04:33:47.901Z,17.80
2023-02-24T04:37:52.430Z,18.80
2023-02-24T04:41:54.294Z,18.93
2023-02-24T04:45:55.569Z,17.20
2023-02-24T04:49:56.748Z,18.43
2023-02-24T04:54:06.646Z,18.07
2023-02-24T04:58:10.231Z,19.70
2023-02-24T05:02:11.658Z,17.43
2023-02-24T05:06:17.160Z,18.73
2023-02-24T05:10:19.002Z,18.90
2023-02-24T05:14:20.458Z,20.07
2023-02-24T05:18:24.050Z,18.87
2023-02-24T05:22:25.201Z,17.13
2023-02-24T05:26:26.760Z,18.03
2023-02-24T05:30:27.943Z,18.80
2023-02-24T05:34:31.076Z,18.37
2023-02-24T05:38:34.307Z,18.40
2023-02-24T05:42:35.466Z,18.93
2023-02-24T05:46:39.236Z,18.37
2023-02-24T05:50:43.834Z,18.20
2023-02-24T05:54:47.187Z,21.37
2023-02-24T05:58:54.499Z,19.50
2023-02-24T06:02:57.588Z,19.07
2023-02-24T06:07:00.604Z,19.50
2023-02-24T06:11:08.750Z,18.10
2023-02-24T06:15:10.208Z,17.93
2023-02-24T06:19:12.870Z,20.20
2023-02-24T06:23:20.498Z,19.43
2023-02-24T06:27:23.898Z,19.77
2023-02-24T06:31:29.388Z,18.63
2023-02-24T06:35:32.583Z,18.33
2023-02-24T06:39:37.065Z,19.43
2023-02-24T06:43:43.965Z,18.70
2023-02-24T06:47:47.044Z,20.60
2023-02-24T06:51:49.563Z,20.00
2023-02-24T06:55:51.102Z,20.60
2023-02-24T06:59:52.180Z,20.47
2023-02-24T07:04:08.717Z,21.23
2023-02-24T07:08:09.865Z,19.33
2023-02-24T07:12:11.925Z,20.27
2023-02-24T07:16:15.634Z,21.10
2023-02-24T07:20:19.014Z,20.40
2023-02-24T07:24:26.928Z,21.93
2023-02-24T07:28:28.054Z,23.70
2023-02-24T07:32:29.752Z,23.73
2023-02-24T07:36:32.993Z,22.23
2023-02-24T07:40:35.623Z,23.17
2023-02-24T07:44:38.182Z,28.67
2023-02-24T07:48:43.702Z,24.00
2023-02-24T07:52:48.012Z,24.27
2023-02-24T07:56:58.613Z,25.57
2023-02-24T08:01:03.367Z,25.17
2023-02-24T08:05:06.895Z,23.27
2023-02-24T08:09:17.546Z,25.20
2023-02-24T08:13:18.684Z,23.97
2023-02-24T08:17:23.360Z,30.80
2023-02-24T08:21:26.424Z,22.90
2023-02-24T08:25:34.935Z,23.30
2023-02-24T08:29:42.789Z,23.00
2023-02-24T08:33:44.007Z,22.40
2023-02-24T08:37:48.034Z,22.77
2023-02-24T08:41:53.857Z,22.63
2023-02-24T08:46:00.036Z,22.77
2023-02-24T08:50:01.555Z,22.37
2023-02-24T08:54:07.389Z,22.73
2023-02-24T08:58:10.468Z,23.93
2023-02-24T09:02:17.870Z,21.37
2023-02-24T09:06:24.317Z,23.40
2023-02-24T09:10:27.359Z,23.03
2023-02-24T09:14:33.232Z,22.60
2023-02-24T09:18:36.291Z,22.20
2023-02-24T09:22:45.394Z,23.47
2023-02-24T09:26:46.543Z,23.10
2023-02-24T09:30:56.562Z,26.00
2023-02-24T09:34:57.705Z,22.70
2023-02-24T09:39:02.140Z,23.63
2023-02-24T09:43:05.306Z,23.07
2023-02-24T09:47:40.233Z,24.30
2023-02-24T09:51:41.632Z,20.73
2023-02-24T09:56:05.324Z,20.03
2023-02-24T10:00:28.837Z,20.77
2023-02-24T10:04:54.804Z,19.47
2023-02-24T10:09:07.325Z,19.07
2023-02-24T10:13:16.389Z,22.60
2023-02-24T10:17:29.016Z,22.30
2023-02-24T10:21:49.221Z,20.30
2023-02-24T10:25:59.155Z,24.70
2023-02-24T10:30:19.393Z,23.20
2023-02-24T10:34:24.044Z,22.03
2023-02-24T10:38:27.424Z,18.90
2023-02-24T10:42:31.497Z,22.50
2023-02-24T10:46:41.433Z,24.20
2023-02-24T10:50:55.307Z,23.10
2023-02-24T10:54:49.614Z,24.17
2023-02-24T10:59:04.943Z,25.90
2023-02-24T11:03:09.799Z,22.53
2023-02-24T11:07:24.606Z,23.23
2023-02-24T11:11:34.796Z,20.97
2023-02-24T11:15:58.193Z,20.40
2023-02-24T11:20:04.439Z,21.30
2023-02-24T11:24:07.235Z,19.13
2023-02-24T11:28:19.311Z,20.30
2023-02-24T11:32:33.916Z,20.73
2023-02-24T11:36:42.675Z,21.10
2023-02-24T11:40:47.642Z,19.33
2023-02-24T11:44:55.794Z,18.47
2023-02-24T11:48:58.942Z,19.53
2023-02-24T11:53:04.132Z,20.37
2023-02-24T11:57:09.092Z,17.87
2023-02-24T12:01:26.869Z,18.53
2023-02-24T12:05:33.915Z,19.00
2023-02-24T12:09:41.876Z,14.00
2023-02-24T12:14:12.489Z,12.70
2023-02-24T12:18:34.959Z,13.70
2023-02-24T12:22:45.505Z,13.43
2023-02-24T12:27:19.073Z,13.87
2023-02-24T12:31:41.039Z,13.43
2023-02-24T12:36:02.394Z,14.53
2023-02-24T12:40:25.911Z,11.60
2023-02-24T12:44:50.808Z,11.50
2023-02-24T12:49:01.979Z,13.03
2023-02-24T12:53:06.950Z,12.90
2023-02-24T12:57:20.606Z,13.40
2023-02-24T13:01:47.337Z,11.23
2023-02-24T13:06:07.707Z,11.10
2023-02-24T13:10:42.836Z,12.23
2023-02-24T13:14:44.699Z,10.40
2023-02-24T13:18:45.849Z,10.40
2023-02-24T13:22:48.301Z,10.53
2023-02-24T13:26:49.387Z,9.93
2023-02-24T13:31:03.422Z,9.20
2023-02-24T13:35:23.282Z,9.80
2023-02-24T13:39:36.070Z,8.20
2023-02-24T13:43:37.215Z,9.00
2023-02-24T13:48:08.308Z,8.30
2023-02-24T13:52:45.669Z,7.93
2023-02-24T13:57:02.900Z,7.50
2023-02-24T14:01:10.185Z,8.50
2023-02-24T14:05:17.674Z,8.40
2023-02-24T14:09:22.882Z,8.53
2023-02-24T14:13:28.662Z,8.60
2023-02-24T14:17:33.806Z,7.63
2023-02-24T14:21:35.074Z,8.17
2023-02-24T14:25:38.517Z,7.77
2023-02-24T14:29:44.217Z,7.00
2023-02-24T14:33:45.080Z,8.00
2023-02-24T14:37:46.231Z,7.20
2023-02-24T14:41:48.656Z,8.30
2023-02-24T14:45:51.943Z,6.90
2023-02-24T14:49:59.444Z,7.30
2023-02-24T14:54:04.390Z,8.00
2023-02-24T14:58:15.587Z,8.23
2023-02-24T15:02:20.582Z,8.63
2023-02-24T15:06:28.217Z,9.63
2023-02-24T15:10:30.505Z,9.83
2023-02-24T15:14:32.003Z,10.23
2023-02-24T15:18:33.138Z,9.70
2023-02-24T15:22:36.220Z,11.27
2023-02-24T15:26:38.182Z,9.93
2023-02-24T15:30:43.170Z,9.87
2023-02-24T15:34:47.174Z,10.30
2023-02-24T15:38:52.150Z,10.13
2023-02-24T15:43:09.100Z,9.17
2023-02-24T15:47:20.525Z,9.33
2023-02-24T15:51:28.569Z,7.73
2023-02-24T15:55:30.030Z,9.23
2023-02-24T15:59:31.302Z,7.50
2023-02-24T16:03:32.715Z,6.73
2023-02-24T16:07:37.086Z,7.27
2023-02-24T16:11:40.728Z,6.70
2023-02-24T16:15:44.550Z,6.33
2023-02-24T16:19:45.693Z,5.37
2023-02-24T16:23:46.888Z,5.37
2023-02-24T16:27:49.125Z,5.30
2023-02-24T16:31:50.422Z,6.20
2023-02-24T16:35:54.915Z,5.10
2023-02-24T16:39:59.958Z,5.40
2023-02-24T16:44:01.114Z,7.23
2023-02-24T16:48:05.065Z,4.93
2023-02-24T16:52:06.282Z,6.47
2023-02-24T16:56:07.801Z,5.30
2023-02-24T17:00:11.157Z,5.00
2023-02-24T17:04:13.687Z,4.97
2023-02-24T17:08:15.987Z,5.57
2023-02-24T17:12:21.718Z,6.10
2023-02-24T17:16:22.959Z,5.63
2023-02-24T17:20:24.246Z,5.70
2023-02-24T17:24:25.514Z,4.57
2023-02-24T17:28:26.673Z,5.20
2023-02-24T17:32:28.133Z,5.17
2023-02-24T17:36:29.401Z,5.67
2023-02-24T17:40:31.871Z,3.90
2023-02-24T17:44:34.526Z,4.67
2023-02-24T17:48:35.775Z,3.90
2023-02-24T17:52:37.240Z,4.90
2023-02-24T17:56:39.080Z,4.60
2023-02-24T18:00:40.403Z,4.20
2023-02-24T18:04:42.442Z,4.20
2023-02-24T18:08:43.618Z,5.27
2023-02-24T18:12:44.771Z,4.10
2023-02-24T18:16:46.037Z,4.70
2023-02-24T18:20:47.194Z,4.10
2023-02-24T18:24:48.351Z,4.80
2023-02-24T18:28:51.596Z,4.37
2023-02-24T18:32:53.307Z,4.77
2023-02-24T18:36:54.558Z,4.93
2023-02-24T18:40:58.426Z,5.23
2023-02-24T18:44:59.606Z,4.53
2023-02-24T18:49:00.877Z,4.40
2023-02-24T18:53:02.040Z,4.33
2023-02-24T18:57:03.443Z,5.60
2023-02-24T19:01:16.664Z,4.97
2023-02-24T19:05:18.194Z,4.93
2023-02-24T19:09:20.782Z,5.80
2023-02-24T19:13:23.348Z,4.10
2023-02-24T19:17:24.524Z,4.40
2023-02-24T19:21:27.386Z,5.03
2023-02-24T19:25:29.696Z,4.20
2023-02-24T19:29:30.876Z,4.83
2023-02-24T19:33:32.229Z,5.27
2023-02-24T19:37:33.600Z,4.60
2023-02-24T19:41:36.215Z,4.10
2023-02-24T19:45:42.754Z,4.40
2023-02-24T19:49:43.890Z,4.77
2023-02-24T19:53:45.104Z,5.40
2023-02-24T19:57:46.303Z,6.20
2023-02-24T20:01:51.154Z,6.60
2023-02-24T20:05:52.347Z,5.10
2023-02-24T20:09:54.135Z,5.10
2023-02-24T20:13:55.424Z,5.70
2023-02-24T20:17:58.438Z,5.37
2023-02-24T20:22:00.891Z,5.20
2023-02-24T20:26:02.673Z,6.80
2023-02-24T20:30:05.732Z,6.20
2023-02-24T20:34:09.709Z,6.90
2023-02-24T20:38:11.689Z,6.83
2023-02-24T20:42:14.351Z,6.13
2023-02-24T20:46:23.491Z,6.37
2023-02-24T20:50:26.011Z,7.20
2023-02-24T20:54:27.761Z,7.00
2023-02-24T20:58:28.989Z,7.20
2023-02-24T21:02:30.146Z,7.27
2023-02-24T21:06:31.735Z,7.17
2023-02-24T21:10:33.078Z,10.10
2023-02-24T21:14:35.133Z,7.67
2023-02-24T21:18:38.567Z,7.20
2023-02-24T21:22:41.166Z,6.53
2023-02-24T21:26:42.331Z,7.20
2023-02-24T21:30:43.688Z,8.40
2023-02-24T21:34:45.122Z,8.13
2023-02-24T21:38:46.671Z,8.60
2023-02-24T21:42:47.917Z,8.13
2023-02-24T21:46:49.276Z,7.60
2023-02-24T21:51:08.864Z,7.70
2023-02-24T21:55:10.358Z,7.80
2023-02-24T21:59:11.620Z,7.53
2023-02-24T22:03:12.857Z,7.23
2023-02-24T22:07:13.991Z,8.33
2023-02-24T22:11:17.162Z,8.70
2023-02-24T22:15:18.473Z,7.10
2023-02-24T22:19:19.672Z,7.90
2023-02-24T22:23:20.810Z,7.83
2023-02-24T22:27:22.570Z,7.73
2023-02-24T22:31:26.349Z,4.90
2023-02-24T22:35:27.795Z,3.40
2023-02-24T22:39:28.977Z,2.80
2023-02-24T22:43:30.567Z,3.30
2023-02-24T22:47:32.056Z,2.53
2023-02-24T22:51:33.243Z,2.60
2023-02-24T22:55:34.358Z,3.13
2023-02-24T22:59:35.427Z,2.90
2023-02-24T23:03:36.891Z,2.60
2023-02-24T23:07:38.021Z,3.30
2023-02-24T23:11:40.724Z,2.67
2023-02-24T23:15:42.472Z,3.20
2023-02-24T23:19:43.597Z,2.83
2023-02-24T23:23:45.482Z,4.00
2023-02-24T23:27:46.570Z,3.13
2023-02-24T23:31:48.006Z,3.10
2023-02-24T23:35:49.294Z,2.93
2023-02-24T23:39:50.518Z,2.50
2023-02-24T23:43:51.917Z,3.50
2023-02-24T23:47:53.177Z,3.63
2023-02-24T23:51:54.326Z,4.10
2023-02-24T23:55:55.395Z,3.23
2023-02-24T23:59:56.533Z,3.13
